createdAt,value
2023-06-29T00:00:58.511Z,16.92
2023-06-29T00:04:00.300Z,16.81
2023-06-29T00:07:04.202Z,16.89
2023-06-29T00:10:07.385Z,16.86
2023-06-29T00:13:08.798Z,16.85
2023-06-29T00:16:10.300Z,16.79
2023-06-29T00:19:15.711Z,16.66
2023-06-29T00:22:20.074Z,16.54
2023-06-29T00:25:21.587Z,16.47
2023-06-29T00:28:23.227Z,16.42
2023-06-29T00:31:25.630Z,16.46
2023-06-29T00:34:27.229Z,16.43
2023-06-29T00:37:28.708Z,16.42
2023-06-29T00:40:30.300Z,16.38
2023-06-29T00:43:31.885Z,16.26
2023-06-29T00:46:33.476Z,16.23
2023-06-29T00:49:35.258Z,16.18
2023-06-29T00:52:37.088Z,16.13
2023-06-29T00:55:39.161Z,16.05
2023-06-29T00:58:40.664Z,16.04
2023-06-29T01:01:44.231Z,16.08
2023-06-29T01:04:46.877Z,15.98
2023-06-29T01:08:06.868Z,15.98
2023-06-29T01:11:09.021Z,15.91
2023-06-29T01:14:12.622Z,15.88
2023-06-29T01:17:21.225Z,15.79
2023-06-29T01:20:27.511Z,15.69
2023-06-29T01:23:37.726Z,15.73
2023-06-29T01:26:39.641Z,15.68
2023-06-29T01:29:42.128Z,15.65
2023-06-29T01:32:43.606Z,15.61
2023-06-29T01:35:45.863Z,15.63
2023-06-29T01:39:00.053Z,15.57
2023-06-29T01:42:02.207Z,15.51
2023-06-29T01:45:05.816Z,15.52
2023-06-29T01:48:07.696Z,15.40
2023-06-29T01:51:10.079Z,15.40
2023-06-29T01:54:11.540Z,15.46
2023-06-29T01:57:13.948Z,15.38
2023-06-29T02:00:15.672Z,15.42
2023-06-29T02:03:17.331Z,15.37
2023-06-29T02:06:18.869Z,15.34
2023-06-29T02:09:20.305Z,15.20
2023-06-29T02:12:21.780Z,15.21
2023-06-29T02:15:23.235Z,15.13
2023-06-29T02:18:24.742Z,15.10
2023-06-29T02:21:26.424Z,15.08
2023-06-29T02:24:27.887Z,15.05
2023-06-29T02:27:29.363Z,15.03
2023-06-29T02:30:30.800Z,14.94
2023-06-29T02:33:32.276Z,15.02
2023-06-29T02:36:33.703Z,14.97
2023-06-29T02:39:35.134Z,14.86
2023-06-29T02:42:37.815Z,14.76
2023-06-29T02:45:39.319Z,14.83
2023-06-29T02:48:40.825Z,14.85
2023-06-29T02:51:42.359Z,14.80
2023-06-29T02:54:43.797Z,14.71
2023-06-29T02:57:45.264Z,14.68
2023-06-29T03:00:46.715Z,14.73
2023-06-29T03:03:48.162Z,14.72
2023-06-29T03:06:49.651Z,14.70
2023-06-29T03:09:51.115Z,14.79
2023-06-29T03:12:52.599Z,14.83
2023-06-29T03:15:57.789Z,14.78
2023-06-29T03:18:59.224Z,14.65
2023-06-29T03:22:00.695Z,14.52
2023-06-29T03:25:02.822Z,14.47
2023-06-29T03:28:04.540Z,14.29
2023-06-29T03:31:06.201Z,14.22
2023-06-29T03:34:07.760Z,14.24
2023-06-29T03:37:09.357Z,14.14
2023-06-29T03:40:11.481Z,14.19
2023-06-29T03:43:12.978Z,14.21
2023-06-29T03:46:14.563Z,14.19
2023-06-29T03:49:16.054Z,14.14
2023-06-29T03:52:17.482Z,14.08
2023-06-29T03:55:19.506Z,14.05
2023-06-29T03:58:21.232Z,14.05
2023-06-29T04:01:22.849Z,14.15
2023-06-29T04:04:24.291Z,14.11
2023-06-29T04:07:25.782Z,14.06
2023-06-29T04:10:27.269Z,14.12
2023-06-29T04:13:28.698Z,14.09
2023-06-29T04:16:30.175Z,14.10
2023-06-29T04:19:31.701Z,14.19
2023-06-29T04:22:33.145Z,14.03
2023-06-29T04:25:34.595Z,14.11
2023-06-29T04:28:36.983Z,14.06
2023-06-29T04:31:38.624Z,14.07
2023-06-29T04:34:40.060Z,13.95
2023-06-29T04:37:44.320Z,14.11
2023-06-29T04:40:45.812Z,14.07
2023-06-29T04:43:48.871Z,14.14
2023-06-29T04:46:50.421Z,14.21
2023-06-29T04:49:52.565Z,14.25
2023-06-29T04:52:59.604Z,14.31
2023-06-29T04:56:04.988Z,14.14
2023-06-29T04:59:06.423Z,14.42
2023-06-29T05:02:07.983Z,14.38
2023-06-29T05:05:09.775Z,14.52
2023-06-29T05:08:11.340Z,14.59
2023-06-29T05:11:12.775Z,14.55
2023-06-29T05:14:14.425Z,14.57
2023-06-29T05:17:16.271Z,14.53
2023-06-29T05:20:18.706Z,14.61
2023-06-29T05:23:20.461Z,14.72
2023-06-29T05:26:23.025Z,14.64
2023-06-29T05:29:25.218Z,14.64
2023-06-29T05:32:27.757Z,14.66
2023-06-29T05:35:29.214Z,14.85
2023-06-29T05:38:30.878Z,14.96
2023-06-29T05:41:32.511Z,15.02
2023-06-29T05:44:33.927Z,15.10
2023-06-29T05:47:35.385Z,14.97
2023-06-29T05:50:36.949Z,15.10
2023-06-29T05:53:38.405Z,15.17
2023-06-29T05:56:39.876Z,15.22
2023-06-29T05:59:41.352Z,15.33
2023-06-29T06:02:42.849Z,15.29
2023-06-29T06:05:44.341Z,15.31
2023-06-29T06:08:45.767Z,15.74
2023-06-29T06:11:48.361Z,16.10
2023-06-29T06:14:49.954Z,15.79
2023-06-29T06:17:51.729Z,16.05
2023-06-29T06:20:53.220Z,15.96
2023-06-29T06:23:54.804Z,16.03
2023-06-29T06:26:56.294Z,16.15
2023-06-29T06:29:57.777Z,16.70
2023-06-29T06:33:02.300Z,16.43
2023-06-29T06:36:05.116Z,16.90
2023-06-29T06:39:06.740Z,16.84
2023-06-29T06:42:08.393Z,16.62
2023-06-29T06:45:10.228Z,16.53
2023-06-29T06:48:12.329Z,17.04
2023-06-29T06:51:13.855Z,17.15
2023-06-29T06:54:15.260Z,17.00
2023-06-29T06:57:16.721Z,17.36
2023-06-29T07:00:18.713Z,17.65
2023-06-29T07:03:20.394Z,17.55
2023-06-29T07:06:24.275Z,18.05
2023-06-29T07:09:25.710Z,17.89
2023-06-29T07:12:27.200Z,18.04
2023-06-29T07:15:28.632Z,18.73
2023-06-29T07:18:31.136Z,18.71
2023-06-29T07:21:35.217Z,18.58
2023-06-29T07:24:36.824Z,18.71
2023-06-29T07:27:40.257Z,18.70
2023-06-29T07:30:41.745Z,19.19
2023-06-29T07:33:43.298Z,19.32
2023-06-29T07:36:44.736Z,19.14
2023-06-29T07:39:46.179Z,19.28
2023-06-29T07:42:47.706Z,19.45
2023-06-29T07:45:49.235Z,19.85
2023-06-29T07:48:53.380Z,19.73
2023-06-29T07:51:54.956Z,19.96
2023-06-29T07:54:56.373Z,20.30
2023-06-29T08:01:02.521Z,20.17
2023-06-29T08:04:05.025Z,20.28
2023-06-29T08:07:10.117Z,20.38
2023-06-29T08:10:12.389Z,20.86
2023-06-29T08:13:13.900Z,20.47
2023-06-29T08:16:15.788Z,20.70
2023-06-29T08:19:17.406Z,20.97
2023-06-29T08:22:18.914Z,20.92
2023-06-29T08:25:22.267Z,21.14
2023-06-29T08:28:23.804Z,21.45
2023-06-29T08:31:25.460Z,21.52
2023-06-29T08:34:26.917Z,21.81
2023-06-29T08:37:29.462Z,21.52
2023-06-29T08:40:32.498Z,21.86
2023-06-29T08:43:34.224Z,21.18
2023-06-29T08:46:38.783Z,21.44
2023-06-29T08:49:43.097Z,22.02
2023-06-29T08:52:45.569Z,21.78
2023-06-29T08:55:48.549Z,22.29
2023-06-29T08:58:50.919Z,22.07
2023-06-29T09:01:52.854Z,22.18
2023-06-29T09:04:54.658Z,22.60
2023-06-29T09:07:56.549Z,22.54
2023-06-29T09:10:58.013Z,22.79
2023-06-29T09:13:59.487Z,22.47
2023-06-29T09:17:02.995Z,22.56
2023-06-29T09:20:16.493Z,22.74
2023-06-29T09:23:18.085Z,23.09
2023-06-29T09:26:19.690Z,23.36
2023-06-29T09:29:21.834Z,23.42
2023-06-29T09:32:23.420Z,22.73
2023-06-29T09:35:24.872Z,22.66
2023-06-29T09:38:31.092Z,22.82
2023-06-29T09:41:32.715Z,22.65
2023-06-29T09:44:34.200Z,23.17
2023-06-29T09:50:43.168Z,23.39
2023-06-29T09:53:45.258Z,23.30
2023-06-29T09:56:48.675Z,23.69
2023-06-29T09:59:50.803Z,23.76
2023-06-29T10:02:52.640Z,23.85
2023-06-29T10:06:00.849Z,24.01
2023-06-29T10:09:03.008Z,24.21
2023-06-29T10:12:09.234Z,23.85
2023-06-29T10:15:15.125Z,23.63
2023-06-29T10:18:23.924Z,23.87
2023-06-29T10:21:25.843Z,24.04
2023-06-29T10:24:33.705Z,24.10
2023-06-29T10:27:36.633Z,24.05
2023-06-29T10:30:50.293Z,24.34
2023-06-29T10:33:52.880Z,24.83
2023-06-29T10:37:00.812Z,24.93
2023-06-29T10:40:06.358Z,24.75
2023-06-29T10:43:08.502Z,24.97
2023-06-29T10:46:10.030Z,24.88
2023-06-29T10:49:22.364Z,25.01
2023-06-29T10:52:25.401Z,24.71
2023-06-29T10:55:38.079Z,24.25
2023-06-29T10:58:40.144Z,24.83
2023-06-29T11:01:41.865Z,24.36
2023-06-29T11:04:43.778Z,25.30
2023-06-29T11:07:48.348Z,25.43
2023-06-29T11:10:50.827Z,25.36
2023-06-29T11:13:52.319Z,25.80
2023-06-29T11:16:55.157Z,25.36
2023-06-29T11:19:56.650Z,25.42
2023-06-29T11:22:58.792Z,25.61
2023-06-29T11:26:01.586Z,25.80
2023-06-29T11:29:07.156Z,25.80
2023-06-29T11:32:13.658Z,25.74
2023-06-29T11:35:15.220Z,25.92
2023-06-29T11:38:16.804Z,25.89
2023-06-29T11:41:18.335Z,25.77
2023-06-29T11:44:23.517Z,26.23
2023-06-29T11:47:33.187Z,25.46
2023-06-29T11:50:38.209Z,25.68
2023-06-29T11:53:40.178Z,26.45
2023-06-29T11:56:43.531Z,26.72
2023-06-29T11:59:46.515Z,26.30
2023-06-29T12:02:48.065Z,26.65
2023-06-29T12:05:51.175Z,26.96
2023-06-29T12:08:53.492Z,26.52
2023-06-29T12:12:03.402Z,26.89
2023-06-29T12:15:21.886Z,26.78
2023-06-29T12:18:29.262Z,26.95
2023-06-29T12:21:34.871Z,26.08
2023-06-29T12:24:36.446Z,26.74
2023-06-29T12:27:38.610Z,27.31
2023-06-29T12:30:41.242Z,27.78
2023-06-29T12:33:42.688Z,27.28
2023-06-29T12:36:44.196Z,27.42
2023-06-29T12:39:45.697Z,27.30
2023-06-29T12:42:47.298Z,27.05
2023-06-29T12:45:48.748Z,26.95
2023-06-29T12:48:50.289Z,27.68
2023-06-29T12:51:51.749Z,27.68
2023-06-29T12:54:53.500Z,27.91
2023-06-29T12:57:54.936Z,28.09
2023-06-29T13:00:56.539Z,28.54
2023-06-29T13:03:58.237Z,28.08
2023-06-29T13:06:59.879Z,27.66
2023-06-29T13:10:01.545Z,27.26
2023-06-29T13:13:03.499Z,26.92
2023-06-29T13:16:05.206Z,27.42
2023-06-29T13:32:20.358Z,29.01
2023-06-29T13:35:23.095Z,29.05
2023-06-29T13:38:24.646Z,29.09
2023-06-29T13:41:40.042Z,29.60
2023-06-29T13:44:41.540Z,28.99
2023-06-29T13:47:43.444Z,28.15
2023-06-29T13:50:44.965Z,28.29
2023-06-29T13:53:46.377Z,28.67
2023-06-29T13:56:48.034Z,29.24
2023-06-29T13:59:49.548Z,29.22
2023-06-29T14:02:52.626Z,29.41
2023-06-29T14:05:55.092Z,29.63
2023-06-29T14:08:56.530Z,29.09
2023-06-29T14:11:59.753Z,29.56
2023-06-29T14:15:01.197Z,29.66
2023-06-29T14:18:03.442Z,28.21
2023-06-29T14:21:04.992Z,28.97
2023-06-29T14:24:06.511Z,29.02
2023-06-29T14:27:08.011Z,29.02
2023-06-29T14:30:11.927Z,28.54
2023-06-29T14:33:27.485Z,28.84
2023-06-29T14:36:30.027Z,28.73
2023-06-29T14:39:31.807Z,28.86
2023-06-29T14:42:33.891Z,28.67
2023-06-29T14:45:35.328Z,29.33
2023-06-29T14:48:36.786Z,28.61
2023-06-29T14:51:38.420Z,29.17
2023-06-29T14:54:39.886Z,28.74
2023-06-29T14:57:41.327Z,28.80
2023-06-29T15:03:45.099Z,28.61
2023-06-29T15:06:52.154Z,28.43
2023-06-29T15:09:53.852Z,28.39
2023-06-29T15:12:55.434Z,28.49
2023-06-29T15:15:59.284Z,28.17
2023-06-29T15:19:01.073Z,28.31
2023-06-29T15:22:02.732Z,28.29
2023-06-29T15:25:04.966Z,28.14
2023-06-29T15:28:06.728Z,27.83
2023-06-29T15:31:08.263Z,27.90
2023-06-29T15:34:09.853Z,28.00
2023-06-29T15:37:11.566Z,28.07
2023-06-29T15:40:13.702Z,28.24
2023-06-29T15:43:15.632Z,27.84
2023-06-29T15:46:17.339Z,27.78
2023-06-29T15:49:18.916Z,27.66
2023-06-29T15:52:22.897Z,27.58
2023-06-29T15:59:47.738Z,27.50
2023-06-29T16:02:49.305Z,27.65
2023-06-29T16:05:50.890Z,27.40
2023-06-29T16:08:52.554Z,27.31
2023-06-29T16:11:54.926Z,27.47
2023-06-29T16:15:00.080Z,27.11
2023-06-29T16:18:01.565Z,26.94
2023-06-29T16:21:03.052Z,27.04
2023-06-29T16:24:04.872Z,27.01
2023-06-29T16:27:06.374Z,26.99
2023-06-29T16:30:08.372Z,26.75
2023-06-29T16:33:10.017Z,26.70
2023-06-29T16:36:11.681Z,26.59
2023-06-29T16:39:13.584Z,26.54
2023-06-29T16:42:15.749Z,26.34
2023-06-29T16:45:17.451Z,26.58
2023-06-29T16:48:19.024Z,26.66
2023-06-29T16:51:20.647Z,26.22
2023-06-29T16:54:22.657Z,26.43
2023-06-29T16:57:24.149Z,26.20
2023-06-29T17:00:25.607Z,26.15
2023-06-29T17:03:28.214Z,26.13
2023-06-29T17:06:30.141Z,25.69
2023-06-29T17:09:31.589Z,25.69
2023-06-29T17:12:33.331Z,25.87
2023-06-29T17:15:34.871Z,25.57
2023-06-29T17:18:36.414Z,25.45
2023-06-29T17:21:38.900Z,25.52
2023-06-29T17:24:41.225Z,25.47
2023-06-29T17:27:42.736Z,25.34
2023-06-29T17:30:44.709Z,25.03
2023-06-29T17:33:54.894Z,25.23
2023-06-29T17:36:57.580Z,25.22
2023-06-29T17:39:59.002Z,25.30
2023-06-29T17:43:00.464Z,25.28
2023-06-29T17:46:02.023Z,25.20
2023-06-29T17:49:03.503Z,24.96
2023-06-29T17:52:05.325Z,25.08
2023-06-29T17:55:07.308Z,24.99
2023-06-29T17:58:08.751Z,24.96
2023-06-29T18:01:10.195Z,24.94
2023-06-29T18:04:11.875Z,25.12
2023-06-29T18:07:13.519Z,24.97
2023-06-29T18:10:16.109Z,25.06
2023-06-29T18:13:17.520Z,25.22
2023-06-29T18:16:19.098Z,25.10
2023-06-29T18:19:21.097Z,25.01
2023-06-29T18:22:22.613Z,25.08
2023-06-29T18:25:24.036Z,25.08
2023-06-29T18:28:25.575Z,25.16
2023-06-29T18:31:27.051Z,25.25
2023-06-29T18:34:28.483Z,24.95
2023-06-29T18:37:29.949Z,24.95
2023-06-29T18:40:33.397Z,24.73
2023-06-29T18:43:34.828Z,24.60
2023-06-29T18:47:00.897Z,24.61
2023-06-29T18:50:04.753Z,24.81
2023-06-29T18:53:06.203Z,24.86
2023-06-29T18:56:07.636Z,24.73
2023-06-29T18:59:13.155Z,24.73
2023-06-29T19:02:15.049Z,24.92
2023-06-29T19:05:19.475Z,24.77
2023-06-29T19:08:22.268Z,24.75
2023-06-29T19:11:24.402Z,24.67
2023-06-29T19:14:26.056Z,24.56
2023-06-29T19:17:29.035Z,24.57
2023-06-29T19:20:30.693Z,24.32
2023-06-29T19:23:32.143Z,24.46
2023-06-29T19:26:33.599Z,24.56
2023-06-29T19:29:35.088Z,24.34
2023-06-29T19:32:37.916Z,24.47
2023-06-29T19:35:39.439Z,24.35
2023-06-29T19:38:40.866Z,24.38
2023-06-29T19:41:42.249Z,24.40
2023-06-29T19:44:43.656Z,24.35
2023-06-29T19:47:45.141Z,24.40
2023-06-29T19:50:46.667Z,24.35
2023-06-29T19:53:48.095Z,24.28
2023-06-29T19:56:49.752Z,24.05
2023-06-29T19:59:51.230Z,24.11
2023-06-29T20:02:53.440Z,24.13
2023-06-29T20:05:54.968Z,24.07
2023-06-29T20:08:56.408Z,24.19
2023-06-29T20:11:57.917Z,24.11
2023-06-29T20:14:59.358Z,24.08
2023-06-29T20:18:00.826Z,24.02
2023-06-29T20:21:02.399Z,23.94
2023-06-29T20:24:04.166Z,23.96
2023-06-29T20:27:08.700Z,23.92
2023-06-29T20:30:10.160Z,23.92
2023-06-29T20:33:11.641Z,23.73
2023-06-29T20:36:14.078Z,23.74
2023-06-29T20:39:15.636Z,23.88
2023-06-29T20:42:17.049Z,23.56
2023-06-29T20:45:18.593Z,23.61
2023-06-29T20:48:20.028Z,23.60
2023-06-29T20:51:21.440Z,23.61
2023-06-29T20:54:22.872Z,23.66
2023-06-29T20:57:24.464Z,23.53
2023-06-29T21:00:26.691Z,23.53
2023-06-29T21:03:29.876Z,23.31
2023-06-29T21:06:31.403Z,23.35
2023-06-29T21:09:33.521Z,23.27
2023-06-29T21:12:35.638Z,23.41
2023-06-29T21:15:37.111Z,23.19
2023-06-29T21:18:38.847Z,23.12
2023-06-29T21:21:41.225Z,22.93
2023-06-29T21:24:42.884Z,23.10
2023-06-29T21:27:44.615Z,23.25
2023-06-29T21:30:46.347Z,23.10
2023-06-29T21:33:48.181Z,22.99
2023-06-29T21:36:49.839Z,22.97
2023-06-29T21:39:51.311Z,22.99
2023-06-29T21:42:52.844Z,22.99
2023-06-29T21:45:54.329Z,22.98
2023-06-29T21:48:55.806Z,22.86
2023-06-29T21:51:57.317Z,22.81
2023-06-29T21:54:58.764Z,22.82
2023-06-29T21:58:00.206Z,22.83
2023-06-29T22:01:02.790Z,22.75
2023-06-29T22:04:04.443Z,22.67
2023-06-29T22:07:15.526Z,22.66
2023-06-29T22:10:18.347Z,22.69
2023-06-29T22:13:24.117Z,22.64
2023-06-29T22:16:26.029Z,22.71
2023-06-29T22:19:27.887Z,22.60
2023-06-29T22:22:29.315Z,22.59
2023-06-29T22:25:30.775Z,22.64
2023-06-29T22:28:32.225Z,22.57
2023-06-29T22:31:33.709Z,22.55
2023-06-29T22:34:35.153Z,22.53
2023-06-29T22:37:36.729Z,22.51
2023-06-29T22:40:38.247Z,22.50
2023-06-29T22:43:40.521Z,22.48
2023-06-29T22:46:42.043Z,22.59
2023-06-29T22:49:43.539Z,22.55
2023-06-29T22:52:45.063Z,22.50
2023-06-29T22:55:46.671Z,22.45
2023-06-29T22:59:05.444Z,22.29
2023-06-29T23:02:06.911Z,22.21
2023-06-29T23:05:09.322Z,22.20
2023-06-29T23:08:12.345Z,22.19
2023-06-29T23:11:13.847Z,22.11
2023-06-29T23:14:16.533Z,22.04
2023-06-29T23:17:23.369Z,21.99
2023-06-29T23:20:25.760Z,21.91
2023-06-29T23:23:27.198Z,22.00
2023-06-29T23:26:28.605Z,21.89
2023-06-29T23:29:30.066Z,21.99
2023-06-29T23:32:31.525Z,21.78
2023-06-29T23:35:33.011Z,21.75
2023-06-29T23:38:34.709Z,21.76
2023-06-29T23:41:36.131Z,21.69
2023-06-29T23:44:41.721Z,21.59
2023-06-29T23:47:44.303Z,21.59
2023-06-29T23:50:45.797Z,21.22
2023-06-29T23:53:47.225Z,21.29
2023-06-29T23:56:52.659Z,21.37
2023-06-29T23:59:54.200Z,21.29
